Christian Reinauer — WDA6472 — position and weather

sailwx.info

Track history (hours):
 
Tides and Currents Weather Stations Pressure Air Temp Water Temp Dewpoint Dewpoint Depression Visibility Wind Speed Wind Dir Waves Ship Positions

Christian Reinauer

Owner: REINAUER TRANSPORTATION CO LLC, STATEN ISLAND, NY. More information available from US FCC via Universal Licensing System and Coast Guard Vessel Documentation Center.

Last reported at 2014-Oct-31 02:26 UTC. Time now 2014-Oct-31 09:47 UTC.
Position N 27°33' W 083°01'.

Length 170 m; draft 6.4 m.

Type: Ship (hazmat cat B). MMSI: 366832740.

Date/timePositionNaut miles runAvg speedWind from/ knotsBaromVisibWave heightAir tempDewpointWater temp
2014-Oct-31 02:26N 27°33' W 083°01'6 5.8
2014-Oct-31 01:25N 27°37' W 082°56'0 0.1
2014-Oct-31 00:30N 27°37' W 082°56'4 3.8
2014-Oct-30 23:31N 27°36' W 082°52'1010.3
2014-Oct-30 22:32N 27°37' W 082°41'1010.1
2014-Oct-30 21:33N 27°43' W 082°32'8 8.3
2014-Oct-30 20:33N 27°51' W 082°33'0 0.4
2014-Oct-30 19:31N 27°52' W 082°33'0 0.0
2014-Oct-30 18:31N 27°52' W 082°33'0 0.0
2014-Oct-30 17:31N 27°52' W 082°33'0 0.0
2014-Oct-30 16:31N 27°52' W 082°33'0 0.0
2014-Oct-30 15:31N 27°52' W 082°33'0 0.0
2014-Oct-30 14:31N 27°52' W 082°33'0 0.0
2014-Oct-30 13:31N 27°52' W 082°33'0 0.0
2014-Oct-30 12:31N 27°52' W 082°33'0 0.0
2014-Oct-30 11:31N 27°52' W 082°33'0 0.0
2014-Oct-30 10:31N 27°52' W 082°33'0 0.0
2014-Oct-30 09:31N 27°52' W 082°33'0 0.0
2014-Oct-30 08:34N 27°52' W 082°33'0 0.0
2014-Oct-30 07:33N 27°52' W 082°33'0 0.0
2014-Oct-30 06:33N 27°52' W 082°33'0 0.0
2014-Oct-30 05:33N 27°52' W 082°33'0 0.0
2014-Oct-30 04:33N 27°52' W 082°33'0 0.0
2014-Oct-30 03:33N 27°52' W 082°33'0 0.0
2014-Oct-30 02:33N 27°52' W 082°33'4 4.1
2014-Oct-30 01:34N 27°48' W 082°34'7 7.1
2014-Oct-30 00:34N 27°41' W 082°35'10 9.8
2014-Oct-29 23:34N 27°36' W 082°45'8 7.9
2014-Oct-29 22:33N 27°36' W 082°54'2 2.1
2014-Oct-29 21:32N 27°37' W 082°56'0 0.0
2014-Oct-29 20:29N 27°37' W 082°56'0 0.0
2014-Oct-29 19:23N 27°37' W 082°56'0 0.0
2014-Oct-29 18:32N 27°37' W 082°56'0 0.0
2014-Oct-29 17:32N 27°37' W 082°56'0 0.0
2014-Oct-29 16:29N 27°37' W 082°56'0 0.0
2014-Oct-29 14:31N 27°37' W 082°56'0 0.0
2014-Oct-29 13:28N 27°37' W 082°56'0 0.0
2014-Oct-29 12:31N 27°37' W 082°56'0 0.0
2014-Oct-29 11:31N 27°37' W 082°56'0 0.0
2014-Oct-29 10:31N 27°37' W 082°56'0 0.0
2014-Oct-29 09:31N 27°37' W 082°56'0 0.0
2014-Oct-29 08:31N 27°37' W 082°56'0 0.0
2014-Oct-29 07:31N 27°37' W 082°56'0 0.0
2014-Oct-29 06:31N 27°37' W 082°56'0 0.1
2014-Oct-29 05:31N 27°37' W 082°56'0 0.1
2014-Oct-29 04:31N 27°37' W 082°56'0 0.0
2014-Oct-29 03:28N 27°37' W 082°56'0 0.0
2014-Oct-29 02:31N 27°37' W 082°56'0 0.0
2014-Oct-28 22:31N 27°37' W 082°56'0 0.1
2014-Oct-28 21:22N 27°37' W 082°56'0 0.1
2014-Oct-28 20:28N 27°37' W 082°56'3 3.8
2014-Oct-28 19:33N 27°37' W 083°00'38910.2
2014-Oct-27 05:27N 29°55' W 089°55'1010.4
2014-Oct-27 04:31N 29°54' W 090°06'  
2014-Oct-24 10:25N 30°07' W 090°55'9 0.9
2014-Oct-24 00:03N 29°59' W 090°49'35 7.2
2014-Oct-23 19:09N 29°56' W 090°08'  
Track history (hours):
 
Tides and Currents Weather Stations Pressure Air Temp Water Temp Dewpoint Dewpoint Depression Visibility Wind Speed Wind Dir Waves Ship Positions

Christian Reinauer

Owner: REINAUER TRANSPORTATION CO LLC, STATEN ISLAND, NY. More information available from US FCC via Universal Licensing System and Coast Guard Vessel Documentation Center.

Last reported at 2014-Oct-31 02:26 UTC. Time now 2014-Oct-31 09:47 UTC.
Position N 27°33' W 083°01'.

Length 170 m; draft 6.4 m.

Type: Ship (hazmat cat B). MMSI: 366832740.

Date/timePositionNaut miles runAvg speedWind from/ knotsBaromVisibWave heightAir tempDewpointWater temp
2014-Oct-31 02:26N 27°33' W 083°01'6 5.8
2014-Oct-31 01:25N 27°37' W 082°56'0 0.1
2014-Oct-31 00:30N 27°37' W 082°56'4 3.8
2014-Oct-30 23:31N 27°36' W 082°52'1010.3
2014-Oct-30 22:32N 27°37' W 082°41'1010.1
2014-Oct-30 21:33N 27°43' W 082°32'8 8.3
2014-Oct-30 20:33N 27°51' W 082°33'0 0.4
2014-Oct-30 19:31N 27°52' W 082°33'0 0.0
2014-Oct-30 18:31N 27°52' W 082°33'0 0.0
2014-Oct-30 17:31N 27°52' W 082°33'0 0.0
2014-Oct-30 16:31N 27°52' W 082°33'0 0.0
2014-Oct-30 15:31N 27°52' W 082°33'0 0.0
2014-Oct-30 14:31N 27°52' W 082°33'0 0.0
2014-Oct-30 13:31N 27°52' W 082°33'0 0.0
2014-Oct-30 12:31N 27°52' W 082°33'0 0.0
2014-Oct-30 11:31N 27°52' W 082°33'0 0.0
2014-Oct-30 10:31N 27°52' W 082°33'0 0.0
2014-Oct-30 09:31N 27°52' W 082°33'0 0.0
2014-Oct-30 08:34N 27°52' W 082°33'0 0.0
2014-Oct-30 07:33N 27°52' W 082°33'0 0.0
2014-Oct-30 06:33N 27°52' W 082°33'0 0.0
2014-Oct-30 05:33N 27°52' W 082°33'0 0.0
2014-Oct-30 04:33N 27°52' W 082°33'0 0.0
2014-Oct-30 03:33N 27°52' W 082°33'0 0.0
2014-Oct-30 02:33N 27°52' W 082°33'4 4.1
2014-Oct-30 01:34N 27°48' W 082°34'7 7.1
2014-Oct-30 00:34N 27°41' W 082°35'10 9.8
2014-Oct-29 23:34N 27°36' W 082°45'8 7.9
2014-Oct-29 22:33N 27°36' W 082°54'2 2.1
2014-Oct-29 21:32N 27°37' W 082°56'0 0.0
2014-Oct-29 20:29N 27°37' W 082°56'0 0.0
2014-Oct-29 19:23N 27°37' W 082°56'0 0.0
2014-Oct-29 18:32N 27°37' W 082°56'0 0.0
2014-Oct-29 17:32N 27°37' W 082°56'0 0.0
2014-Oct-29 16:29N 27°37' W 082°56'0 0.0
2014-Oct-29 14:31N 27°37' W 082°56'0 0.0
2014-Oct-29 13:28N 27°37' W 082°56'0 0.0
2014-Oct-29 12:31N 27°37' W 082°56'0 0.0
2014-Oct-29 11:31N 27°37' W 082°56'0 0.0
2014-Oct-29 10:31N 27°37' W 082°56'0 0.0
2014-Oct-29 09:31N 27°37' W 082°56'0 0.0
2014-Oct-29 08:31N 27°37' W 082°56'0 0.0
2014-Oct-29 07:31N 27°37' W 082°56'0 0.0
2014-Oct-29 06:31N 27°37' W 082°56'0 0.1
2014-Oct-29 05:31N 27°37' W 082°56'0 0.1
2014-Oct-29 04:31N 27°37' W 082°56'0 0.0
2014-Oct-29 03:28N 27°37' W 082°56'0 0.0
2014-Oct-29 02:31N 27°37' W 082°56'0 0.0
2014-Oct-28 22:31N 27°37' W 082°56'0 0.1
2014-Oct-28 21:22N 27°37' W 082°56'0 0.1
2014-Oct-28 20:28N 27°37' W 082°56'3 3.8
2014-Oct-28 19:33N 27°37' W 083°00'38910.2
2014-Oct-27 05:27N 29°55' W 089°55'1010.4
2014-Oct-27 04:31N 29°54' W 090°06'  
2014-Oct-24 10:25N 30°07' W 090°55'9 0.9
2014-Oct-24 00:03N 29°59' W 090°49'35 7.2
2014-Oct-23 19:09N 29°56' W 090°08'  

Dump ship's entire track history